Time;durP1;ratioP1;P1;durP2;ratioP2;P2;SDS_P1;SDS_P2;PMS_P1;PMS_P2;Temp;Humidity;BMP_temperature;BMP_pressure;BME280_temperature;BME280_humidity;BME280_pressure;Samples;Min_cycle;Max_cycle;Signal;HPM_P1;HPM_P2
2023/07/02 00:00:31;;;;;;;6.85;2.80;;;;;;;;;;4952814;28;20027;-77
2023/07/02 00:02:57;;;;;;;3.95;2.47;;;;;;;;;;4951541;28;20112;-77
2023/07/02 00:05:23;;;;;;;5.72;3.00;;;;;;;;;;4934395;28;20407;-78
2023/07/02 00:07:49;;;;;;;6.88;2.75;;;;;;;;;;4950969;28;20023;-79
2023/07/02 00:10:15;;;;;;;6.57;3.15;;;;;;;;;;4950152;28;20035;-77
2023/07/02 00:12:41;;;;;;;6.55;2.83;;;;;;;;;;4951061;28;20062;-78
2023/07/02 00:15:07;;;;;;;5.80;2.67;;;17.50;99.90;;;;;;4948654;28;20054;-77
2023/07/02 00:17:33;;;;;;;5.00;2.90;;;;;;;;;;4949408;28;20019;-76
2023/07/02 00:20:02;;;;;;;5.78;3.20;;;;;;;;;;4937335;28;20172;-77
2023/07/02 00:22:28;;;;;;;4.68;2.80;;;17.40;99.90;;;;;;4951270;28;20507;-78
2023/07/02 00:24:55;;;;;;;5.35;2.65;;;;;;;;;;4949667;28;20028;-77
2023/07/02 00:27:21;;;;;;;6.00;3.03;;;;;;;;;;4932180;29;20380;-77
2023/07/02 00:29:47;;;;;;;5.60;2.88;;;;;;;;;;4947711;28;20023;-77
2023/07/02 00:32:13;;;;;;;6.82;2.70;;;17.30;99.90;;;;;;4943859;28;20030;-76
2023/07/02 00:34:39;;;;;;;6.72;3.00;;;;;;;;;;4945910;28;20023;-77
2023/07/02 00:37:05;;;;;;;5.75;2.95;;;;;;;;;;4950676;29;20031;-77
2023/07/02 00:39:31;;;;;;;4.45;2.80;;;;;;;;;;4950274;28;20027;-75
2023/07/02 00:42:02;;;;;;;5.30;2.53;;;17.40;99.90;;;;;;4934077;29;20058;-77
2023/07/02 00:44:28;;;;;;;5.80;2.97;;;;;;;;;;4950680;29;20034;-77
2023/07/02 00:46:54;;;;;;;6.35;2.92;;;;;;;;;;4955161;29;20483;-76
2023/07/02 00:49:20;;;;;;;5.07;2.47;;;;;;;;;;4958006;28;20031;-76
2023/07/02 00:51:46;;;;;;;6.07;2.78;;;;;;;;;;4956935;28;20043;-77
2023/07/02 00:54:12;;;;;;;4.93;3.05;;;;;;;;;;4959366;29;20032;-77
2023/07/02 00:56:38;;;;;;;3.92;2.65;;;;;;;;;;4962110;28;20042;-79
2023/07/02 00:59:06;;;;;;;4.55;2.60;;;;;;;;;;4958089;28;20023;-78
2023/07/02 01:01:37;;;;;;;5.38;2.63;;;17.30;99.90;;;;;;4999503;23;20427;-84
2023/07/02 01:04:05;;;;;;;5.53;2.55;;;17.30;99.90;;;;;;4973678;28;20045;-83
2023/07/02 01:06:35;;;;;;;5.43;2.50;;;17.30;99.90;;;;;;4969774;28;20715;-80
2023/07/02 01:09:05;;;;;;;5.28;2.63;;;17.30;99.90;;;;;;4981111;28;20029;-82
2023/07/02 01:11:40;;;;;;;9.52;3.03;;;17.30;99.90;;;;;;4969825;28;20039;-80
2023/07/02 01:14:13;;;;;;;5.70;2.50;;;17.30;99.90;;;;;;4976965;28;20046;-81
2023/07/02 01:16:43;;;;;;;3.67;2.30;;;17.20;99.90;;;;;;4983836;28;20038;-82
2023/07/02 01:19:19;;;;;;;6.70;2.38;;;17.30;99.90;;;;;;4980636;28;20117;-82
2023/07/02 01:21:47;;;;;;;7.43;2.40;;;17.30;99.90;;;;;;4975121;28;20033;-85
2023/07/02 01:24:14;;;;;;;7.90;2.20;;;17.30;99.90;;;;;;4979835;28;20027;-83
2023/07/02 01:26:40;;;;;;;5.82;2.50;;;17.30;99.90;;;;;;4978173;28;20027;-82
2023/07/02 01:29:20;;;;;;;4.63;2.35;;;17.30;99.90;;;;;;4981409;28;20034;-83
2023/07/02 01:31:47;;;;;;;6.18;2.83;;;17.30;99.90;;;;;;4987838;28;20039;-83
2023/07/02 01:34:13;;;;;;;5.88;3.03;;;17.30;99.90;;;;;;4971032;28;20130;-82
2023/07/02 01:36:40;;;;;;;5.30;2.83;;;;;;;;;;4976092;28;20022;-84
2023/07/02 01:39:06;;;;;;;6.30;3.40;;;;;;;;;;4974049;28;20033;-80
2023/07/02 01:42:08;;;;;;;10.77;4.53;;;17.20;99.90;;;;;;4977855;28;20821;-80
2023/07/02 01:44:34;;;;;;;6.75;3.80;;;;;;;;;;4959608;28;20053;-82
2023/07/02 01:47:00;;;;;;;6.32;3.90;;;;;;;;;;4979090;28;20014;-82
2023/07/02 01:49:26;;;;;;;9.38;3.40;;;17.00;99.90;;;;;;4974822;28;20027;-81
2023/07/02 01:51:52;;;;;;;4.47;2.90;;;;;;;;;;4973025;28;20119;-80
2023/07/02 01:54:19;;;;;;;9.00;3.40;;;17.00;99.90;;;;;;4975891;28;20126;-81
2023/07/02 01:56:45;;;;;;;7.72;3.22;;;;;;;;;;4974705;28;20077;-79
2023/07/02 01:59:11;;;;;;;6.85;3.92;;;;;;;;;;4971954;28;20433;-80
2023/07/02 02:01:40;;;;;;;10.95;3.50;;;17.00;99.90;;;;;;4977203;28;20042;-80
2023/07/02 02:04:06;;;;;;;9.85;3.70;;;;;;;;;;4980757;28;20022;-82
2023/07/02 02:06:33;;;;;;;5.75;3.30;;;;;;;;;;4977713;28;20483;-78
2023/07/02 02:08:58;;;;;;;7.55;3.28;;;;;;;;;;4984433;28;20023;-80
2023/07/02 02:11:25;;;;;;;9.95;3.67;;;;;;;;;;4976618;28;20384;-83
2023/07/02 02:13:51;;;;;;;11.75;3.90;;;;;;;;;;4976778;28;20143;-79
2023/07/02 02:16:17;;;;;;;5.82;3.10;;;;;;;;;;4976439;28;20058;-82
2023/07/02 02:18:43;;;;;;;6.20;3.33;;;;;;;;;;4977344;28;20022;-82
2023/07/02 02:21:09;;;;;;;6.22;3.33;;;;;;;;;;4989689;28;21443;-84
2023/07/02 02:23:35;;;;;;;10.25;4.30;;;;;;;;;;4975652;28;20033;-82
2023/07/02 02:26:01;;;;;;;8.48;3.47;;;;;;;;;;4973996;28;20113;-79
2023/07/02 02:28:27;;;;;;;9.30;3.60;;;;;;;;;;4975718;28;20023;-82
2023/07/02 02:30:53;;;;;;;6.95;3.53;;;;;;;;;;4974675;28;20033;-81
2023/07/02 02:33:19;;;;;;;10.27;3.83;;;;;;;;;;4974503;28;20023;-84
2023/07/02 02:35:45;;;;;;;7.88;3.85;;;;;;;;;;4974034;28;20147;-81
2023/07/02 02:38:11;;;;;;;8.48;3.80;;;;;;;;;;4973390;28;20050;-83
2023/07/02 02:40:37;;;;;;;8.38;4.05;;;;;;;;;;4969111;28;20031;-82
2023/07/02 02:43:03;;;;;;;8.82;3.88;;;16.40;99.90;;;;;;4975259;28;20023;-82
2023/07/02 02:45:29;;;;;;;9.55;3.80;;;16.30;99.90;;;;;;4972067;28;20027;-84
2023/07/02 02:47:55;;;;;;;11.27;4.40;;;;;;;;;;4976771;28;20058;-83
2023/07/02 02:50:21;;;;;;;11.48;4.47;;;;;;;;;;4971270;28;20031;-83
2023/07/02 02:52:47;;;;;;;11.38;4.82;;;;;;;;;;4969128;28;20224;-83
2023/07/02 02:55:13;;;;;;;10.95;4.50;;;;;;;;;;4975149;28;20031;-82
2023/07/02 02:57:39;;;;;;;12.07;4.70;;;;;;;;;;4959509;28;20045;-86
2023/07/02 03:00:06;;;;;;;9.98;4.70;;;16.10;99.90;;;;;;4989633;28;20034;-83
2023/07/02 03:02:32;;;;;;;11.73;4.75;;;;;;;;;;4969658;28;20047;-83
2023/07/02 03:05:02;;;;;;;14.27;5.15;;;;;;;;;;4976384;28;20043;-83
2023/07/02 03:07:28;;;;;;;9.63;4.55;;;;;;;;;;4990024;28;20141;-82
2023/07/02 03:09:54;;;;;;;10.48;5.53;;;;;;;;;;4975344;28;20037;-81
2023/07/02 03:12:20;;;;;;;12.73;4.72;;;;;;;;;;4968684;28;20479;-84
2023/07/02 03:14:47;;;;;;;12.40;5.47;;;;;;;;;;4975299;28;20030;-81
2023/07/02 03:17:13;;;;;;;10.40;5.35;;;;;;;;;;4973097;28;20022;-81
2023/07/02 03:19:39;;;;;;;13.35;4.95;;;;;;;;;;4972247;28;20256;-82
2023/07/02 03:22:05;;;;;;;14.60;5.07;;;;;;;;;;4970970;28;20030;-82
2023/07/02 03:24:31;;;;;;;14.68;6.03;;;;;;;;;;4971561;28;20117;-81
2023/07/02 03:26:57;;;;;;;9.50;4.90;;;;;;;;;;4976581;28;20109;-79
2023/07/02 03:29:23;;;;;;;18.27;6.13;;;;;;;;;;4975334;28;20582;-80
2023/07/02 03:31:49;;;;;;;12.82;5.63;;;;;;;;;;4973400;28;20046;-82
2023/07/02 03:34:15;;;;;;;11.88;5.43;;;;;;;;;;4970555;28;20058;-82
2023/07/02 03:36:41;;;;;;;11.30;5.20;;;;;;;;;;4967662;28;20011;-80
2023/07/02 03:39:07;;;;;;;9.18;5.57;;;;;;;;;;4972286;28;20023;-81
2023/07/02 03:41:33;;;;;;;13.80;6.00;;;;;;;;;;4977399;28;20114;-80
2023/07/02 03:43:59;;;;;;;14.15;5.78;;;;;;;;;;4977047;28;20434;-81
2023/07/02 03:46:25;;;;;;;14.57;6.05;;;;;;;;;;4976471;28;20058;-84
2023/07/02 03:48:51;;;;;;;11.05;5.85;;;;;;;;;;4971675;28;20111;-79
2023/07/02 03:51:17;;;;;;;11.40;5.68;;;16.20;99.90;;;;;;4977248;28;20034;-80
2023/07/02 03:53:43;;;;;;;13.90;6.30;;;16.20;99.90;;;;;;4978349;28;20026;-80
2023/07/02 03:56:08;;;;;;;14.60;6.20;;;16.30;99.90;;;;;;4968641;28;20023;-84
2023/07/02 03:58:35;;;;;;;12.55;6.30;;;;;;;;;;4975135;28;20070;-82
2023/07/02 04:01:01;;;;;;;11.65;5.88;;;;;;;;;;4973900;28;20058;-80
2023/07/02 04:03:27;;;;;;;14.00;5.57;;;;;;;;;;4993810;28;20130;-83
2023/07/02 04:05:53;;;;;;;13.20;5.80;;;;;;;;;;4992231;28;20045;-88
2023/07/02 04:08:20;;;;;;;11.10;5.32;;;;;;;;;;4994793;28;20018;-85
2023/07/02 04:10:47;;;;;;;11.63;4.85;;;;;;;;;;4990665;28;20090;-85
2023/07/02 04:13:13;;;;;;;12.43;5.40;;;;;;;;;;4992293;28;20191;-81
2023/07/02 04:15:39;;;;;;;17.13;5.32;;;;;;;;;;4986646;28;20030;-82
2023/07/02 04:18:05;;;;;;;12.13;5.00;;;;;;;;;;4973441;28;20038;-81
2023/07/02 04:20:31;;;;;;;9.50;4.68;;;;;;;;;;4971493;28;20129;-81
2023/07/02 04:22:57;;;;;;;12.27;4.90;;;;;;;;;;4970104;28;20023;-78
2023/07/02 04:25:23;;;;;;;14.35;5.50;;;16.50;99.90;;;;;;4955298;28;20073;-83
2023/07/02 04:27:49;;;;;;;12.95;5.55;;;;;;;;;;4970276;28;20034;-82
2023/07/02 04:30:15;;;;;;;10.73;5.70;;;;;;;;;;4967065;28;20031;-80
2023/07/02 04:32:41;;;;;;;12.63;5.00;;;;;;;;;;4974907;28;20045;-83
2023/07/02 04:35:08;;;;;;;14.70;5.20;;;;;;;;;;4975274;28;20114;-83
2023/07/02 04:37:34;;;;;;;16.95;5.97;;;;;;;;;;4970647;28;20026;-85
2023/07/02 04:40:00;;;;;;;13.23;6.13;;;;;;;;;;4964369;28;20019;-83
2023/07/02 04:42:31;;;;;;;12.98;6.25;;;;;;;;;;4962844;28;20055;-78
2023/07/02 04:45:02;;;;;;;13.90;6.45;;;;;;;;;;4961043;28;20026;-85
2023/07/02 04:47:29;;;;;;;14.05;5.95;;;;;;;;;;4968934;28;20046;-82
2023/07/02 04:49:54;;;;;;;14.05;7.15;;;16.50;99.90;;;;;;4967769;28;20113;-79
2023/07/02 04:52:20;;;;;;;17.13;7.10;;;;;;;;;;4971233;28;20035;-81
2023/07/02 04:54:46;;;;;;;14.57;7.13;;;16.60;99.90;;;;;;4975283;28;20032;-82
2023/07/02 04:57:14;;;;;;;16.77;7.85;;;;;;;;;;4975644;28;20023;-81
2023/07/02 04:59:40;;;;;;;22.10;7.85;;;;;;;;;;4976318;28;20027;-82
2023/07/02 05:02:06;;;;;;;15.60;8.30;;;;;;;;;;4975105;28;20042;-84
2023/07/02 05:04:32;;;;;;;16.50;8.18;;;;;;;;;;4977928;28;20074;-80
2023/07/02 05:06:58;;;;;;;18.50;8.65;;;;;;;;;;4972741;28;20499;-82
2023/07/02 05:09:24;;;;;;;21.10;8.68;;;;;;;;;;4970666;28;20030;-78
2023/07/02 05:11:50;;;;;;;16.58;9.05;;;17.10;99.90;;;;;;4985259;28;20510;-81
2023/07/02 05:14:16;;;;;;;19.88;8.98;;;;;;;;;;4974423;28;20038;-83
2023/07/02 05:16:42;;;;;;;19.25;9.55;;;17.20;99.90;;;;;;4976644;28;20023;-82
2023/07/02 05:19:08;;;;;;;25.98;10.00;;;;;;;;;;4969887;28;20031;-82
2023/07/02 05:21:34;;;;;;;19.65;9.20;;;;;;;;;;4989423;28;20046;-85
2023/07/02 05:24:00;;;;;;;17.45;9.38;;;;;;;;;;4974300;28;20495;-82
2023/07/02 05:26:27;;;;;;;23.30;10.70;;;;;;;;;;4975679;28;20043;-80
2023/07/02 05:28:53;;;;;;;18.40;10.13;;;;;;;;;;4978519;28;20043;-80
2023/07/02 05:31:19;;;;;;;24.83;11.27;;;;;;;;;;4989875;28;20039;-82
2023/07/02 05:33:45;;;;;;;21.40;10.70;;;;;;;;;;4968278;28;20035;-83
2023/07/02 05:36:11;;;;;;;25.23;10.90;;;;;;;;;;4973512;28;20041;-84
2023/07/02 05:38:37;;;;;;;23.58;11.57;;;;;;;;;;4979843;28;20031;-83
2023/07/02 05:41:04;;;;;;;18.98;10.73;;;;;;;;;;4976227;28;20019;-84
2023/07/02 05:43:30;;;;;;;17.63;10.20;;;;;;;;;;4969451;28;20111;-80
2023/07/02 05:46:01;;;;;;;20.70;10.95;;;20.40;99.90;;;;;;4972650;28;20027;-81
2023/07/02 05:48:27;;;;;;;22.23;11.20;;;;;;;;;;4979171;28;20030;-81
2023/07/02 05:50:54;;;;;;;25.40;13.38;;;20.40;99.90;;;;;;4980700;28;20041;-82
2023/07/02 05:53:21;;;;;;;26.58;13.10;;;;;;;;;;4979175;28;20022;-81
2023/07/02 05:55:48;;;;;;;25.08;12.43;;;;;;;;;;4975088;28;20034;-81
2023/07/02 05:58:14;;;;;;;25.08;13.57;;;;;;;;;;4974530;28;20058;-82
2023/07/02 06:00:41;;;;;;;29.30;14.82;;;;;;;;;;4975044;28;20503;-81
2023/07/02 06:03:07;;;;;;;25.88;14.50;;;;;;;;;;4972163;28;20518;-80
2023/07/02 06:05:33;;;;;;;30.58;14.05;;;;;;;;;;4969666;28;20473;-82
2023/07/02 06:07:59;;;;;;;31.15;15.02;;;;;;;;;;4976213;28;20150;-80
2023/07/02 06:10:25;;;;;;;31.83;15.25;;;19.40;99.90;;;;;;4970070;28;20090;-81
2023/07/02 06:12:52;;;;;;;29.60;14.27;;;19.30;99.90;;;;;;4976817;28;20062;-80
2023/07/02 06:15:18;;;;;;;28.20;13.60;;;;;;;;;;4972214;28;20041;-80
2023/07/02 06:17:44;;;;;;;25.60;13.65;;;;;;;;;;4970393;28;20078;-82
2023/07/02 06:20:10;;;;;;;31.30;13.77;;;19.20;99.90;;;;;;4973726;28;20027;-82
2023/07/02 06:22:36;;;;;;;29.35;15.10;;;;;;;;;;4970012;28;20023;-85
2023/07/02 06:25:02;;;;;;;31.05;14.73;;;;;;;;;;4974816;28;20054;-85
2023/07/02 06:27:28;;;;;;;29.50;15.15;;;;;;;;;;4976307;28;20027;-80
2023/07/02 06:29:54;;;;;;;28.45;15.18;;;;;;;;;;4971670;28;20271;-81
2023/07/02 06:32:20;;;;;;;30.02;14.85;;;;;;;;;;4976052;28;20038;-83
2023/07/02 06:34:46;;;;;;;29.98;15.30;;;;;;;;;;4971296;28;20039;-80
2023/07/02 06:37:12;;;;;;;32.05;14.68;;;;;;;;;;4972933;28;20030;-80
2023/07/02 06:39:38;;;;;;;28.52;15.85;;;;;;;;;;4971413;28;20037;-79
2023/07/02 06:42:04;;;;;;;31.42;15.25;;;19.20;99.90;;;;;;4973649;28;20498;-79
2023/07/02 06:44:30;;;;;;;33.78;16.83;;;;;;;;;;4990349;28;20114;-82
2023/07/02 06:46:56;;;;;;;31.95;16.55;;;;;;;;;;4977254;28;20041;-80
2023/07/02 06:49:22;;;;;;;37.47;16.88;;;;;;;;;;4974743;28;20035;-81
2023/07/02 06:51:48;;;;;;;32.80;17.05;;;;;;;;;;4973750;28;20030;-80
2023/07/02 06:54:14;;;;;;;30.77;16.10;;;;;;;;;;4986515;28;20035;-83
2023/07/02 06:56:40;;;;;;;37.55;18.50;;;19.20;99.90;;;;;;4965450;28;20085;-85
2023/07/02 06:59:06;;;;;;;34.88;17.25;;;;;;;;;;4969505;28;20032;-82
2023/07/02 07:01:32;;;;;;;38.33;17.13;;;;;;;;;;4964284;28;20033;-85
2023/07/02 07:03:59;;;;;;;34.53;18.02;;;;;;;;;;4966041;28;20031;-81
2023/07/02 07:06:25;;;;;;;33.65;16.85;;;;;;;;;;4963953;28;20086;-83
2023/07/02 07:08:51;;;;;;;31.45;16.05;;;;;;;;;;4970252;28;20042;-84
2023/07/02 07:11:17;;;;;;;35.45;16.98;;;22.00;99.90;;;;;;4968042;28;20018;-82
2023/07/02 07:13:43;;;;;;;37.13;17.90;;;20.00;99.90;;;;;;4963656;28;20165;-81
2023/07/02 07:16:09;;;;;;;36.15;17.30;;;19.80;99.90;;;;;;4966290;28;20438;-83
2023/07/02 07:18:35;;;;;;;35.08;18.45;;;;;;;;;;4968668;28;20027;-83
2023/07/02 07:21:01;;;;;;;42.13;17.60;;;;;;;;;;4968506;28;20085;-82
2023/07/02 07:23:27;;;;;;;34.70;17.40;;;;;;;;;;4970608;28;20499;-79
2023/07/02 07:25:53;;;;;;;41.67;18.63;;;19.90;99.90;;;;;;4971469;28;20027;-80
2023/07/02 07:28:18;;;;;;;35.22;17.67;;;19.90;99.90;;;;;;4966496;28;20023;-83
2023/07/02 07:30:44;;;;;;;36.88;18.52;;;;;;;;;;4962976;28;20027;-79
2023/07/02 07:33:11;;;;;;;34.47;17.63;;;;;;;;;;4962879;28;20525;-81
2023/07/02 07:35:37;;;;;;;36.63;18.02;;;;;;;;;;4967302;28;20046;-79
2023/07/02 07:38:03;;;;;;;36.30;17.67;;;;;;;;;;4962608;28;20031;-81
2023/07/02 07:40:29;;;;;;;42.88;19.25;;;;;;;;;;4966944;28;20110;-79
2023/07/02 07:42:55;;;;;;;36.08;17.85;;;;;;;;;;4964416;28;20039;-83
2023/07/02 07:45:21;;;;;;;36.70;17.55;;;19.90;99.90;;;;;;4967048;28;20037;-79
2023/07/02 07:47:47;;;;;;;39.40;17.58;;;19.90;99.90;;;;;;4963477;28;20419;-84
2023/07/02 07:50:13;;;;;;;37.03;17.50;;;;;;;;;;4968761;28;20039;-79
2023/07/02 07:52:39;;;;;;;36.20;18.02;;;;;;;;;;4971585;28;20118;-86
2023/07/02 07:55:06;;;;;;;37.35;17.95;;;19.40;99.90;;;;;;4991596;28;20023;-87
2023/07/02 07:57:32;;;;;;;35.83;16.67;;;;;;;;;;4993615;28;20027;-88
2023/07/02 07:59:58;;;;;;;32.83;17.58;;;;;;;;;;4989173;28;20057;-88
2023/07/02 08:02:24;;;;;;;37.83;17.50;;;19.70;99.90;;;;;;4990152;28;20031;-86
2023/07/02 08:04:50;;;;;;;32.95;16.65;;;;;;;;;;4986540;28;20339;-85
2023/07/02 08:07:16;;;;;;;36.47;16.70;;;;;;;;;;4974560;28;20045;-83
2023/07/02 08:09:42;;;;;;;36.38;16.88;;;;;;;;;;4983706;28;20011;-87
2023/07/02 08:12:08;;;;;;;33.20;16.60;;;20.40;99.90;;;;;;4990239;28;20067;-88
2023/07/02 08:14:37;;;;;;;34.20;16.70;;;;;;;;;;4990879;28;20098;-86
2023/07/02 08:17:03;;;;;;;30.80;16.30;;;20.70;99.90;;;;;;4991950;28;20007;-88
2023/07/02 08:19:29;;;;;;;32.90;16.58;;;;;;;;;;4994592;28;20063;-89
2023/07/02 08:21:55;;;;;;;33.78;16.27;;;;;;;;;;4993283;28;20015;-88
2023/07/02 08:24:21;;;;;;;26.77;14.57;;;;;;;;;;4989968;28;20027;-87
2023/07/02 08:26:49;;;;;;;33.38;15.32;;;;;;;;;;4993217;28;20015;-89
2023/07/02 08:29:15;;;;;;;26.67;15.32;;;;;;;;;;4993215;28;20034;-87
2023/07/02 08:31:42;;;;;;;31.13;16.33;;;;;;;;;;5007164;28;20031;-89
2023/07/02 08:34:08;;;;;;;26.95;15.73;;;;;;;;;;4988853;28;20050;-85
2023/07/02 08:36:35;;;;;;;34.90;16.65;;;;;;;;;;4994105;28;20011;-87
2023/07/02 08:39:01;;;;;;;29.60;15.65;;;;;;;;;;4988685;28;20467;-87
2023/07/02 08:41:27;;;;;;;29.10;15.38;;;;;;;;;;4987646;28;20023;-80
2023/07/02 08:43:55;;;;;;;27.40;15.40;;;21.20;99.30;;;;;;4984492;28;20114;-82
2023/07/02 08:46:21;;;;;;;26.70;14.63;;;;;;;;;;4975316;28;20057;-79
2023/07/02 08:48:47;;;;;;;29.98;14.75;;;;;;;;;;4972898;28;20030;-80
2023/07/02 08:51:13;;;;;;;27.13;14.98;;;;;;;;;;4968707;28;20056;-81
2023/07/02 08:53:39;;;;;;;26.08;14.63;;;;;;;;;;4963466;28;20031;-84
2023/07/02 08:56:05;;;;;;;28.42;14.60;;;;;;;;;;4961871;28;20068;-80
2023/07/02 08:58:31;;;;;;;27.95;14.80;;;;;;;;;;4966938;28;20023;-83
2023/07/02 09:01:11;;;;;;;33.92;15.85;;;21.70;97.40;;;;;;4963547;28;20035;-86
2023/07/02 09:03:38;;;;;;;;;;;21.90;97.20;;;;;;4970526;28;20035;-85
2023/07/02 09:06:04;;;;;;;28.02;14.63;;;22.00;96.80;;;;;;4972099;28;19910;-82
2023/07/02 09:08:33;;;;;;;24.85;13.45;;;22.00;97.10;;;;;;4968364;28;20489;-82
2023/07/02 09:11:25;;;;;;;24.38;14.43;;;22.40;95.60;;;;;;4972789;28;20019;-83
2023/07/02 09:14:00;;;;;;;26.75;13.70;;;22.40;94.70;;;;;;4966078;28;20066;-80
2023/07/02 09:16:28;;;;;;;22.23;13.73;;;22.60;94.90;;;;;;4971162;28;20035;-82
2023/07/02 09:19:08;;;;;;;28.33;14.02;;;22.80;94.10;;;;;;4970828;28;20019;-82
2023/07/02 09:21:45;;;;;;;26.60;13.85;;;22.70;93.90;;;;;;4971756;28;20109;-81
2023/07/02 09:24:19;;;;;;;27.45;14.27;;;22.50;94.80;;;;;;4968869;28;20035;-82
2023/07/02 09:26:49;;;;;;;26.13;14.32;;;22.20;94.80;;;;;;4965953;28;20054;-82
2023/07/02 09:29:22;;;;;;;29.42;14.30;;;21.90;95.70;;;;;;4966998;28;20034;-84
2023/07/02 09:31:48;;;;;;;25.00;14.07;;;;;;;;;;4968413;28;20039;-84
2023/07/02 09:34:15;;;;;;;29.20;14.05;;;;;;;;;;4970347;28;20026;-81
2023/07/02 09:36:41;;;;;;;26.30;13.40;;;;;;;;;;4971239;28;20026;-82
2023/07/02 09:39:18;;;;;;;27.85;14.48;;;22.30;94.80;;;;;;4968599;28;20034;-84
2023/07/02 09:41:45;;;;;;;26.08;13.95;;;;;;;;;;4990052;28;20023;-83
2023/07/02 09:44:13;;;;;;;26.63;14.75;;;22.20;94.90;;;;;;4970640;28;20035;-81
2023/07/02 09:46:49;;;;;;;24.42;14.13;;;22.10;94.80;;;;;;4970617;28;20089;-81
2023/07/02 09:49:18;;;;;;;27.95;14.60;;;22.20;94.80;;;;;;4969147;28;20039;-83
2023/07/02 09:51:45;;;;;;;26.85;14.35;;;;;;;;;;4967188;28;20054;-81
2023/07/02 09:54:11;;;;;;;29.58;14.25;;;;;;;;;;4972757;28;20030;-85
2023/07/02 09:56:37;;;;;;;35.65;14.82;;;22.20;94.60;;;;;;4972262;28;20035;-84
2023/07/02 09:59:03;;;;;;;24.50;13.57;;;;;;;;;;4972205;28;20083;-83
2023/07/02 10:01:29;;;;;;;25.95;15.38;;;22.10;94.90;;;;;;4960579;28;20031;-83
2023/07/02 10:03:55;;;;;;;29.92;14.77;;;;;;;;;;4978356;28;21090;-85
2023/07/02 10:06:21;;;;;;;31.42;14.77;;;;;;;;;;4969012;28;20097;-81
2023/07/02 10:08:57;;;;;;;26.90;14.80;;;22.10;94.60;;;;;;4975202;28;20022;-85
2023/07/02 10:11:34;;;;;;;25.98;14.35;;;22.00;94.50;;;;;;4972047;28;20027;-86
2023/07/02 10:14:00;;;;;;;26.75;14.43;;;;;;;;;;4971244;28;20027;-81
2023/07/02 10:16:27;;;;;;;25.50;13.95;;;;;;;;;;4976461;28;20030;-82
2023/07/02 10:18:54;;;;;;;28.85;14.07;;;22.00;94.00;;;;;;4972111;28;20027;-82
2023/07/02 10:21:20;;;;;;;31.63;15.52;;;;;;;;;;4965520;28;20031;-81
2023/07/02 10:23:46;;;;;;;32.70;14.32;;;;;;;;;;4973259;28;20117;-84
2023/07/02 10:26:17;;;;;;;27.13;15.48;;;22.10;93.70;;;;;;4970443;28;20419;-84
2023/07/02 10:28:43;;;;;;;27.80;15.05;;;;;;;;;;4970627;28;20035;-83
2023/07/02 10:31:22;;;;;;;29.63;14.60;;;;;;;;;;4969324;28;20039;-79
2023/07/02 10:33:48;;;;;;;26.95;13.75;;;;;;;;;;4967024;28;20038;-81
2023/07/02 10:36:24;;;;;;;23.02;13.82;;;22.50;91.90;;;;;;4967419;28;20117;-81
2023/07/02 10:38:51;;;;;;;26.05;13.25;;;22.40;92.10;;;;;;4972927;28;20028;-81
2023/07/02 10:41:27;;;;;;;28.58;14.23;;;22.20;92.30;;;;;;4965273;28;20022;-81
2023/07/02 10:43:53;;;;;;;24.00;13.10;;;;;;;;;;4963456;28;20531;-85
2023/07/02 10:46:23;;;;;;;25.40;13.05;;;22.00;92.70;;;;;;4968841;28;20104;-84
2023/07/02 10:48:55;;;;;;;24.60;13.20;;;22.10;92.50;;;;;;4976289;28;20716;-84
2023/07/02 10:51:24;;;;;;;26.65;13.32;;;22.50;91.90;;;;;;4969047;28;20062;-83
2023/07/02 10:53:58;;;;;;;24.92;12.80;;;22.90;91.20;;;;;;4954052;28;21375;-83
2023/07/02 10:56:25;;;;;;;22.42;13.00;;;;;;;;;;4972198;28;20097;-84
2023/07/02 10:58:51;;;;;;;25.00;12.60;;;23.30;90.70;;;;;;4970176;28;20513;-84
2023/07/02 11:01:28;;;;;;;32.17;13.32;;;23.30;90.70;;;;;;4974976;28;20034;-83
2023/07/02 11:04:02;;;;;;;26.45;13.80;;;23.10;91.30;;;;;;4971053;28;20051;-83
2023/07/02 11:06:28;;;;;;;26.50;13.88;;;22.90;91.60;;;;;;4981113;28;20098;-83
2023/07/02 11:08:55;;;;;;;26.00;13.35;;;;;;;;;;4973513;28;20058;-82
2023/07/02 11:11:21;;;;;;;27.20;12.85;;;;;;;;;;4977805;28;20022;-84
2023/07/02 11:13:51;;;;;;;25.45;13.55;;;22.80;91.20;;;;;;4973000;28;20041;-82
2023/07/02 11:16:22;;;;;;;;;;;22.80;91.20;;;;;;4973232;28;20024;-86
2023/07/02 11:18:48;;;;;;;26.27;13.00;;;;;;;;;;4961337;28;19914;-84
2023/07/02 11:21:14;;;;;;;31.13;14.57;;;;;;;;;;4987061;28;20037;-83
2023/07/02 11:23:40;;;;;;;25.70;13.50;;;22.80;90.40;;;;;;4968821;28;20609;-84
2023/07/02 11:26:06;;;;;;;25.67;12.68;;;;;;;;;;4971333;28;20485;-83
2023/07/02 11:28:34;;;;;;;23.27;12.75;;;22.70;89.50;;;;;;4968477;28;20080;-83
2023/07/02 11:31:02;;;;;;;26.33;12.80;;;;;;;;;;4963911;28;20037;-84
2023/07/02 11:33:40;;;;;;;25.33;13.95;;;22.90;89.90;;;;;;4972100;28;20120;-82
2023/07/02 11:36:07;;;;;;;28.23;13.60;;;23.00;90.00;;;;;;4967819;28;20136;-86
2023/07/02 11:38:37;;;;;;;27.05;13.85;;;;;;;;;;4969675;28;20035;-82
2023/07/02 11:41:03;;;;;;;;;;;23.20;89.00;;;;;;4971959;28;20023;-88
2023/07/02 11:43:29;;;;;;;24.33;13.30;;;;;;;;;;5000307;28;19902;-84
2023/07/02 11:45:55;;;;;;;27.00;13.23;;;;;;;;;;4990774;28;20034;-87
2023/07/02 11:48:21;;;;;;;26.17;13.13;;;;;;;;;;4989102;28;20015;-86
2023/07/02 11:50:47;;;;;;;25.40;13.23;;;;;;;;;;4987692;28;20047;-87
2023/07/02 11:53:13;;;;;;;24.73;13.15;;;;;;;;;;4977096;28;20023;-84
2023/07/02 11:55:39;;;;;;;24.15;13.45;;;;;;;;;;4971171;28;20023;-84
2023/07/02 11:58:05;;;;;;;30.48;13.68;;;;;;;;;;4971620;28;20026;-82
2023/07/02 12:00:31;;;;;;;22.13;13.38;;;;;;;;;;4961651;28;20046;-81
2023/07/02 12:02:57;;;;;;;27.00;13.70;;;;;;;;;;4967961;28;20106;-83
2023/07/02 12:05:23;;;;;;;25.45;12.85;;;;;;;;;;4964102;28;20027;-82
2023/07/02 12:07:51;;;;;;;24.15;13.70;;;;;;;;;;4968244;28;20554;-82
2023/07/02 12:10:17;;;;;;;22.55;12.95;;;;;;;;;;4962230;28;20158;-80
2023/07/02 12:12:43;;;;;;;26.60;13.13;;;;;;;;;;4964571;28;20125;-81
2023/07/02 12:15:09;;;;;;;25.52;12.82;;;23.50;87.50;;;;;;4966375;28;20030;-84
2023/07/02 12:17:35;;;;;;;24.55;13.43;;;;;;;;;;4971104;28;20051;-80
2023/07/02 12:20:01;;;;;;;28.02;13.60;;;;;;;;;;4968566;28;20061;-80
2023/07/02 12:22:27;;;;;;;24.08;13.35;;;;;;;;;;4968009;28;20492;-84
2023/07/02 12:24:57;;;;;;;24.05;12.45;;;;;;;;;;4965725;28;20026;-84
2023/07/02 12:27:25;;;;;;;26.52;13.15;;;;;;;;;;4966145;28;20555;-81
2023/07/02 12:29:51;;;;;;;24.35;13.05;;;;;;;;;;4970436;28;20042;-84
2023/07/02 12:32:17;;;;;;;22.27;12.63;;;;;;;;;;4970612;28;20042;-82
2023/07/02 12:34:43;;;;;;;22.40;12.85;;;;;;;;;;4962986;28;20034;-83
2023/07/02 12:37:08;;;;;;;26.45;13.60;;;23.80;83.40;;;;;;4969357;28;20035;-81
2023/07/02 12:39:34;;;;;;;24.50;13.02;;;23.70;85.30;;;;;;4970573;28;20030;-82
2023/07/02 12:42:00;;;;;;;26.38;13.48;;;23.60;85.30;;;;;;4972400;28;20019;-83
2023/07/02 12:44:26;;;;;;;25.27;12.73;;;;;;;;;;4968790;28;20057;-83
2023/07/02 12:46:52;;;;;;;27.83;13.85;;;;;;;;;;4972735;28;20487;-83
2023/07/02 12:49:17;;;;;;;24.35;13.38;;;23.50;86.50;;;;;;4968463;28;20399;-82
2023/07/02 12:51:43;;;;;;;25.63;13.05;;;;;;;;;;4968596;28;20122;-82
2023/07/02 12:54:09;;;;;;;25.88;12.45;;;;;;;;;;4968153;28;20035;-83
2023/07/02 12:56:35;;;;;;;23.95;12.65;;;;;;;;;;4969952;28;20030;-82
2023/07/02 12:59:02;;;;;;;22.15;12.25;;;24.00;85.90;;;;;;4966428;28;20027;-82
2023/07/02 13:01:28;;;;;;;22.90;12.27;;;;;;;;;;4964913;28;20032;-83
2023/07/02 13:03:54;;;;;;;27.55;13.32;;;;;;;;;;4979344;28;20038;-83
2023/07/02 13:06:20;;;;;;;22.13;12.70;;;;;;;;;;4966300;28;20035;-82
2023/07/02 13:08:46;;;;;;;26.42;13.57;;;;;;;;;;4980382;28;20473;-82
2023/07/02 13:11:14;;;;;;;25.65;13.07;;;;;;;;;;4968265;28;20023;-82
2023/07/02 13:13:40;;;;;;;22.63;12.25;;;;;;;;;;4966736;28;20498;-82
2023/07/02 13:16:07;;;;;;;25.95;13.40;;;;;;;;;;4978649;28;22641;-82
2023/07/02 13:18:33;;;;;;;26.25;13.75;;;;;;;;;;4977123;28;20039;-80
2023/07/02 13:20:58;;;;;;;24.60;13.50;;;24.20;83.60;;;;;;4972446;28;20043;-82
2023/07/02 13:23:24;;;;;;;22.58;12.38;;;;;;;;;;4972103;28;20031;-81
2023/07/02 13:25:50;;;;;;;22.10;12.48;;;;;;;;;;4974795;28;20073;-81
2023/07/02 13:28:16;;;;;;;23.88;12.43;;;24.70;81.50;;;;;;4987390;28;20023;-84
2023/07/02 13:30:42;;;;;;;22.75;12.90;;;24.80;81.00;;;;;;4969920;28;20114;-82
2023/07/02 13:33:08;;;;;;;19.70;11.57;;;;;;;;;;4978785;28;20085;-83
2023/07/02 13:35:37;;;;;;;24.88;12.50;;;;;;;;;;4972674;28;20023;-81
2023/07/02 13:38:04;;;;;;;20.65;11.82;;;;;;;;;;4973498;28;20018;-84
2023/07/02 13:40:30;;;;;;;22.10;12.65;;;;;;;;;;4973995;28;20019;-83
2023/07/02 13:42:56;;;;;;;24.08;12.30;;;;;;;;;;4977380;28;20027;-82
2023/07/02 13:45:22;;;;;;;25.52;12.23;;;;;;;;;;4975052;28;20441;-82
2023/07/02 13:47:48;;;;;;;27.38;12.13;;;24.20;82.00;;;;;;4991201;28;20073;-85